Time;durP1;ratioP1;P1;durP2;ratioP2;P2;SDS_P1;SDS_P2;PMS_P1;PMS_P2;Temp;Humidity;BMP_temperature;BMP_pressure;BME280_temperature;BME280_humidity;BME280_pressure;Samples;Min_cycle;Max_cycle;Signal;HPM_P1;HPM_P2
2022/10/04 00:01:33;;;;;;;0.62;0.62;;;;;;;;;;1783861;79;26267;-56
2022/10/04 00:04:05;;;;;;;0.70;0.70;;;;;;;;;;1780510;80;26355;-55
2022/10/04 00:06:32;;;;;;;0.70;0.70;;;;;;;;;;1771927;79;26327;-56
2022/10/04 00:09:01;;;;;;;1.02;1.00;;;;;;;;;;1783772;80;26282;-56
2022/10/04 00:11:29;;;;;;;0.75;0.75;;;;;;;;;;1782997;79;26275;-53
2022/10/04 00:13:58;;;;;;;0.90;0.90;;;;;;;;;;1778775;80;26849;-55
2022/10/04 00:16:27;;;;;;;0.70;0.70;;;;;;;;;;1763588;79;26295;-54
2022/10/04 00:19:11;;;;;;;0.60;0.60;;;;;;;;;;1774031;79;26293;-55
2022/10/04 00:21:49;;;;;;;0.62;0.62;;;;;;;;;;1767595;79;26797;-54
2022/10/04 00:24:24;;;;;;;0.70;0.70;;;;;;;;;;1774056;79;26291;-57
2022/10/04 00:26:52;;;;;;;0.60;0.60;;;;;;;;;;1756006;79;26308;-55
2022/10/04 00:29:27;;;;;;;0.72;0.72;;;;;;;;;;1777623;79;26283;-58
2022/10/04 00:32:11;;;;;;;0.60;0.60;;;;;;;;;;1773238;79;26325;-54
2022/10/04 00:34:46;;;;;;;0.57;0.57;;;;;;;;;;1760543;79;26316;-57
2022/10/04 00:37:14;;;;;;;0.65;0.65;;;;;;;;;;1779589;79;26360;-56
2022/10/04 00:39:42;;;;;;;0.60;0.60;;;;;;;;;;1777580;79;26353;-56
2022/10/04 00:42:23;;;;;;;0.60;0.60;;;;;;;;;;1765339;79;26298;-56
2022/10/04 00:44:52;;;;;;;0.60;0.60;;;;;;;;;;1740841;80;26236;-52
2022/10/04 00:47:21;;;;;;;0.60;0.60;;;;;;;;;;1782973;79;26275;-56
2022/10/04 00:49:50;;;;;;;0.60;0.60;;;;;;;;;;1773211;79;26299;-54
2022/10/04 00:52:21;;;;;;;0.60;0.60;;;;;;;;;;1786239;79;26403;-56
2022/10/04 00:54:53;;;;;;;0.60;0.53;;;;;;;;;;1777408;79;26279;-55
2022/10/04 00:57:33;;;;;;;0.60;0.60;;;;;;;;;;1791169;78;27274;-56
2022/10/04 01:00:14;;;;;;;0.62;0.50;;;;;;;;;;1785108;79;27304;-55
2022/10/04 01:02:43;;;;;;;0.50;0.50;;;;;;;;;;1772535;79;26574;-56
2022/10/04 01:05:15;;;;;;;0.50;0.50;;;;;;;;;;1785859;78;26267;-55
2022/10/04 01:07:53;;;;;;;0.57;0.57;;;;;;;;;;1802543;78;26728;-58
2022/10/04 01:10:22;;;;;;;0.42;0.42;;;;;;;;;;1809131;78;26179;-55
2022/10/04 01:12:51;;;;;;;0.45;0.45;;;;;;;;;;1796618;79;26701;-56
2022/10/04 01:15:20;;;;;;;0.30;0.30;;;;;;;;;;1805349;79;26280;-51
2022/10/04 01:18:05;;;;;;;0.40;0.40;;;;;;;;;;1798723;79;26328;-57
2022/10/04 01:20:35;;;;;;;0.60;0.60;;;;;;;;;;1800359;79;26623;-55
2022/10/04 01:23:04;;;;;;;0.50;0.50;;;;;;;;;;1794376;78;26304;-54
2022/10/04 01:25:48;;;;;;;0.70;0.47;;;;;;;;;;1795804;79;26275;-57
2022/10/04 01:28:16;;;;;;;0.50;0.50;;;;;;;;;;1797252;78;26297;-57
2022/10/04 01:30:43;;;;;;;0.40;0.40;;;;;;;;;;1802065;79;26354;-58
2022/10/04 01:33:11;;;;;;;0.45;0.45;;;;;;;;;;1796238;78;26580;-55
2022/10/04 01:35:39;;;;;;;0.50;0.50;;;;;;;;;;1791216;79;26237;-57
2022/10/04 01:38:07;;;;;;;0.42;0.42;;;;;;;;;;1791475;78;26262;-57
2022/10/04 01:40:35;;;;;;;0.40;0.40;;;;;;;;;;1780751;79;26275;-54
2022/10/04 01:43:04;;;;;;;0.40;0.40;;;;;;;;;;1793552;78;26239;-55
2022/10/04 01:45:38;;;;;;;0.98;0.40;;;;;;;;;;1785338;79;26271;-56
2022/10/04 01:48:07;;;;;;;0.50;0.50;;;;;;;;;;1771642;79;26329;-57
2022/10/04 01:50:50;;;;;;;0.30;0.30;;;;;;;;;;1784160;79;26706;-50
2022/10/04 01:53:25;;;;;;;0.50;0.50;;;;;;;;;;1777537;79;26351;-57
2022/10/04 01:55:54;;;;;;;0.40;0.40;;;;;;;;;;1789296;78;26288;-54
2022/10/04 01:58:26;;;;;;;0.30;0.30;;;;;;;;;;1783117;79;26727;-55
2022/10/04 02:00:55;;;;;;;0.37;0.37;;;;;;;;;;1788424;79;26226;-56
2022/10/04 02:03:24;;;;;;;0.40;0.40;;;;;;;;;;1787017;78;26285;-57
2022/10/04 02:05:53;;;;;;;0.40;0.40;;;;;;;;;;1786673;79;26656;-56
2022/10/04 02:08:21;;;;;;;0.47;0.42;;;;;;;;;;1792190;79;26305;-58
2022/10/04 02:10:49;;;;;;;0.40;0.40;;;;;;;;;;1785081;79;26251;-56
2022/10/04 02:13:17;;;;;;;0.30;0.30;;;;;;;;;;1800898;78;26672;-55
2022/10/04 02:15:46;;;;;;;0.33;0.33;;;;;;;;;;1792760;79;26291;-57
2022/10/04 02:18:15;;;;;;;0.40;0.40;;;;;;;;;;1797732;78;26324;-55
2022/10/04 02:20:43;;;;;;;0.37;0.37;;;;;;;;;;1789958;79;26255;-56
2022/10/04 02:23:11;;;;;;;0.62;0.40;;;;;;;;;;1779403;79;26348;-53
2022/10/04 02:25:39;;;;;;;0.42;0.42;;;;;;;;;;1784180;79;26231;-55
2022/10/04 02:28:09;;;;;;;0.40;0.40;;;;;;;;;;1789604;78;26238;-54
2022/10/04 02:30:38;;;;;;;0.40;0.40;;;;;;;;;;1799376;79;26277;-53
2022/10/04 02:33:05;;;;;;;0.40;0.40;;;;;;;;;;1800313;79;26691;-54
2022/10/04 02:35:34;;;;;;;0.35;0.35;;;;;;;;;;1802747;79;26264;-55
2022/10/04 02:38:18;;;;;;;0.40;0.40;;;;;;;;;;1791300;78;26258;-56
2022/10/04 02:41:05;;;;;;;0.35;0.35;;;;;;;;;;1789939;79;26342;-54
2022/10/04 02:43:34;;;;;;;0.50;0.50;;;;;;;;;;1782769;78;26345;-57
2022/10/04 02:46:06;;;;;;;0.33;0.30;;;;;;;;;;1791078;79;26232;-53
2022/10/04 02:48:50;;;;;;;0.30;0.30;;;;;;;;;;1788896;78;26592;-53
2022/10/04 02:51:28;;;;;;;0.30;0.30;;;;;;;;;;1789851;79;26326;-58
2022/10/04 02:53:57;;;;;;;0.40;0.40;;;;;;;;;;1777822;79;27317;-55
2022/10/04 02:56:25;;;;;;;0.33;0.30;;;;;;;;;;1799035;79;26734;-55
2022/10/04 02:58:53;;;;;;;0.20;0.20;;;;;;;;;;1798658;79;26278;-56
2022/10/04 03:01:25;;;;;;;0.40;0.40;;;;;;;;;;1799950;79;26229;-55
2022/10/04 03:03:54;;;;;;;0.57;0.40;;;;;;;;;;1787189;78;26246;-56
2022/10/04 03:06:23;;;;;;;0.40;0.40;;;;;;;;;;1792655;79;26866;-55
2022/10/04 03:08:52;;;;;;;0.30;0.30;;;;;;;;;;1803493;79;26647;-55
2022/10/04 03:11:21;;;;;;;0.30;0.30;;;;;;;;;;1796786;79;26312;-55
2022/10/04 03:13:50;;;;;;;0.40;0.40;;;;;;;;;;1792071;79;26332;-55
2022/10/04 03:16:18;;;;;;;0.33;0.33;;;;;;;;;;1792095;79;26316;-57
2022/10/04 03:18:46;;;;;;;0.72;0.40;;;;;;;;;;1800706;79;26385;-57
2022/10/04 03:21:15;;;;;;;0.40;0.40;;;;;;;;;;1796390;78;26266;-54
2022/10/04 03:23:43;;;;;;;0.40;0.40;;;;;;;;;;1796447;79;26724;-57
2022/10/04 03:26:28;;;;;;;0.30;0.30;;;;;;;;;;1787066;79;26275;-56
2022/10/04 03:28:57;;;;;;;0.35;0.35;;;;;;;;;;1799760;79;26257;-57
2022/10/04 03:31:26;;;;;;;0.40;0.37;;;;;;;;;;1773631;79;26230;-54
2022/10/04 03:33:54;;;;;;;0.30;0.30;;;;;;;;;;1781492;79;26256;-53
2022/10/04 03:36:23;;;;;;;0.40;0.40;;;;;;;;;;1776639;79;26354;-55
2022/10/04 03:38:52;;;;;;;0.30;0.30;;;;;;;;;;1787048;79;26773;-58
2022/10/04 03:41:19;;;;;;;0.30;0.30;;;;;;;;;;1785561;79;26779;-56
2022/10/04 03:43:51;;;;;;;0.33;0.33;;;;;;;;;;1779927;78;26342;-55
2022/10/04 03:46:19;;;;;;;0.30;0.30;;;;;;;;;;1781471;79;26191;-54
2022/10/04 03:48:49;;;;;;;0.30;0.30;;;;;;;;;;1783283;78;26293;-54
2022/10/04 03:51:17;;;;;;;0.30;0.30;;;;;;;;;;1785875;78;26253;-55
2022/10/04 03:53:46;;;;;;;0.50;0.40;;;;;;;;;;1798477;79;26335;-57
2022/10/04 03:56:24;;;;;;;0.20;0.20;;;;;;;;;;1797775;79;26350;-56
2022/10/04 03:58:52;;;;;;;0.30;0.30;;;;;;;;;;1802861;79;26228;-55
2022/10/04 04:01:37;;;;;;;0.23;0.23;;;;;;;;;;1793599;79;27332;-54
2022/10/04 04:04:15;;;;;;;0.30;0.30;;;;;;;;;;1791541;78;26742;-57
2022/10/04 04:07:02;;;;;;;0.30;0.30;;;;;;;;;;1792770;79;26238;-57
2022/10/04 04:09:31;;;;;;;0.25;0.25;;;;;;;;;;1792096;79;26227;-54
2022/10/04 04:12:00;;;;;;;0.30;0.30;;;;;;;;;;1789283;79;26317;-55
2022/10/04 04:14:27;;;;;;;0.30;0.30;;;;;;;;;;1788588;79;26171;-54
2022/10/04 04:16:56;;;;;;;0.20;0.20;;;;;;;;;;1799805;79;26254;-55
2022/10/04 04:19:24;;;;;;;0.30;0.30;;;;;;;;;;1785293;79;26265;-57
2022/10/04 04:21:53;;;;;;;0.40;0.40;;;;;;;;;;1790219;79;26624;-57
2022/10/04 04:24:23;;;;;;;0.35;0.35;;;;;;;;;;1794041;79;26357;-57
2022/10/04 04:26:52;;;;;;;0.30;0.30;;;;;;;;;;1794732;79;26207;-56
2022/10/04 04:29:27;;;;;;;0.30;0.30;;;;;;;;;;1800516;79;26293;-57
2022/10/04 04:31:55;;;;;;;0.40;0.40;;;;;;;;;;1788404;79;25763;-54
2022/10/04 04:34:30;;;;;;;3.02;0.30;;;;;;;;;;1770250;79;26731;-55
2022/10/04 04:37:02;;;;;;;0.30;0.30;;;;;;;;;;1793493;79;26348;-57
2022/10/04 04:39:33;;;;;;;0.30;0.30;;;;;;;;;;1792188;79;26292;-57
2022/10/04 04:42:02;;;;;;;0.20;0.20;;;;;;;;;;1795713;79;26254;-57
2022/10/04 04:44:29;;;;;;;1.30;0.50;;;;;;;;;;1795893;79;26211;-56
2022/10/04 04:46:59;;;;;;;0.30;0.30;;;;;;;;;;1798101;79;26872;-59
2022/10/04 04:49:30;;;;;;;0.33;0.33;;;;;;;;;;1785412;79;27702;-58
2022/10/04 04:51:57;;;;;;;0.30;0.30;;;;;;;;;;1779543;79;26337;-55
2022/10/04 04:54:26;;;;;;;0.23;0.23;;;;;;;;;;1797616;79;26654;-54
2022/10/04 04:56:56;;;;;;;0.60;0.33;;;;;;;;;;1796148;79;26714;-54
2022/10/04 04:59:26;;;;;;;0.37;0.37;;;;;;;;;;1784255;78;26318;-57
2022/10/04 05:01:53;;;;;;;0.47;0.40;;;;;;;;;;1790454;79;26247;-56
2022/10/04 05:04:22;;;;;;;0.28;0.28;;;;;;;;;;1790408;79;27411;-57
2022/10/04 05:06:50;;;;;;;1.40;0.40;;;;;;;;;;1788944;78;26342;-56
2022/10/04 05:09:22;;;;;;;0.95;0.33;;;;;;;;;;1794790;78;26272;-55
2022/10/04 05:11:51;;;;;;;1.98;0.35;;;;;;;;;;1794067;78;26701;-57
2022/10/04 05:14:19;;;;;;;0.40;0.40;;;;;;;;;;1785996;78;26213;-55
2022/10/04 05:16:47;;;;;;;2.40;0.47;;;;;;;;;;1798546;79;26238;-56
2022/10/04 05:19:20;;;;;;;2.27;0.40;;;;;;;;;;1814208;78;26280;-57
2022/10/04 05:21:49;;;;;;;2.10;0.40;;;;;;;;;;1809932;78;26282;-57
2022/10/04 05:24:30;;;;;;;2.47;0.40;;;;;;;;;;1785145;78;26346;-56
2022/10/04 05:27:07;;;;;;;1.65;0.50;;;;;;;;;;1788932;78;26778;-54
2022/10/04 05:29:36;;;;;;;0.57;0.30;;;;;;;;;;1775893;78;26259;-57
2022/10/04 05:32:12;;;;;;;2.75;0.60;;;;;;;;;;1804061;79;26264;-57
2022/10/04 05:34:40;;;;;;;2.42;0.57;;;;;;;;;;1793930;78;26275;-56
2022/10/04 05:37:09;;;;;;;3.20;0.60;;;;;;;;;;1776690;78;26252;-58
2022/10/04 05:39:37;;;;;;;1.30;0.50;;;;;;;;;;1811944;79;26218;-56
2022/10/04 05:42:06;;;;;;;2.17;0.40;;;;;;;;;;1798271;78;26229;-56
2022/10/04 05:44:47;;;;;;;2.87;0.68;;;;;;;;;;1760141;79;26265;-56
2022/10/04 05:47:15;;;;;;;1.22;0.80;;;;;;;;;;1795471;78;26676;-58
2022/10/04 05:49:44;;;;;;;5.05;0.78;;;;;;;;;;1798329;78;26256;-55
2022/10/04 05:52:16;;;;;;;1.15;0.65;;;;;;;;;;1785268;78;26346;-56
2022/10/04 05:54:44;;;;;;;1.52;0.60;;;;;;;;;;1803298;78;26321;-55
2022/10/04 05:57:15;;;;;;;0.70;0.55;;;;;;;;;;1786416;78;26373;-57
2022/10/04 05:59:56;;;;;;;3.90;0.40;;;;;;;;;;1769105;78;26303;-57
2022/10/04 06:02:25;;;;;;;0.62;0.40;;;;;;;;;;1791018;79;26286;-56
2022/10/04 06:04:55;;;;;;;1.65;0.60;;;;;;;;;;1786341;79;26270;-57
2022/10/04 06:07:24;;;;;;;0.90;0.40;;;;;;;;;;1766115;79;26263;-57
2022/10/04 06:09:58;;;;;;;1.30;0.70;;;;;;;;;;1771008;79;26266;-55
2022/10/04 06:12:41;;;;;;;0.82;0.50;;;;;;;;;;1746727;79;26304;-55
2022/10/04 06:15:26;;;;;;;5.35;0.50;;;;;;;;;;1769633;79;26318;-57
2022/10/04 06:17:58;;;;;;;2.35;0.80;;;;;;;;;;1748744;79;26381;-57
2022/10/04 06:20:44;;;;;;;0.60;0.60;;;;;;;;;;1765922;79;26232;-54
2022/10/04 06:23:15;;;;;;;1.50;0.30;;;;;;;;;;1772026;79;26295;-55
2022/10/04 06:25:45;;;;;;;0.40;0.40;;;;;;;;;;1755812;79;26669;-57
2022/10/04 06:28:23;;;;;;;1.85;0.70;;;;;;;;;;1756665;79;26376;-57
2022/10/04 06:31:08;;;;;;;0.62;0.37;;;;;;;;;;1766480;79;26689;-57
2022/10/04 06:33:49;;;;;;;0.57;0.40;;;;;;;;;;1763985;79;26357;-56
2022/10/04 06:36:18;;;;;;;1.37;0.47;;;;;;;;;;1781816;79;26763;-54
2022/10/04 06:38:49;;;;;;;2.02;0.47;;;;;;;;;;1751219;79;26286;-56
2022/10/04 06:41:21;;;;;;;0.40;0.40;;;;;;;;;;1771157;81;25743;-57
2022/10/04 06:44:08;;;;;;;0.30;0.30;;;;;;;;;;1754793;79;26348;-58
2022/10/04 06:46:46;;;;;;;1.35;0.35;;;;;;;;;;1768390;79;26273;-56
2022/10/04 06:49:16;;;;;;;0.72;0.47;;;;;;;;;;1716516;82;26333;-56
2022/10/04 06:51:48;;;;;;;1.50;0.33;;;;;;;;;;1766358;79;26429;-57
2022/10/04 06:54:35;;;;;;;1.95;0.40;;;;;;;;;;1767911;79;26374;-58
2022/10/04 06:57:10;;;;;;;1.00;0.35;;;;;;;;;;1754240;79;26350;-57
2022/10/04 06:59:39;;;;;;;0.20;0.20;;;;;;;;;;1788451;79;26414;-56
2022/10/04 07:02:08;;;;;;;0.50;0.20;;;;;;;;;;1777602;79;26312;-54
2022/10/04 07:04:39;;;;;;;0.62;0.40;;;;;;;;;;1768630;79;26318;-56
2022/10/04 07:07:25;;;;;;;0.68;0.45;;;;;;;;;;1774096;79;26872;-54
2022/10/04 07:10:03;;;;;;;0.28;0.28;;;;;;;;;;1790930;79;26346;-57
2022/10/04 07:12:31;;;;;;;0.70;0.28;;;;;;;;;;1789587;79;26282;-55
2022/10/04 07:15:00;;;;;;;0.33;0.17;;;;;;;;;;1793391;79;26317;-55
2022/10/04 07:17:29;;;;;;;1.10;0.50;;;;;;;;;;1797346;79;26291;-55
2022/10/04 07:19:57;;;;;;;0.50;0.40;;;;;;;;;;1781909;79;26278;-55
2022/10/04 07:22:30;;;;;;;2.62;0.45;;;;;;;;;;1795257;79;26365;-54
2022/10/04 07:25:04;;;;;;;0.23;0.23;;;;;;;;;;1787605;79;27000;-55
2022/10/04 07:27:43;;;;;;;0.35;0.35;;;;;;;;;;1767618;79;26444;-56
2022/10/04 07:30:14;;;;;;;4.20;1.57;;;;;;;;;;1797505;79;26349;-56
2022/10/04 07:32:47;;;;;;;0.40;0.40;;;;;;;;;;1798632;79;25721;-54
2022/10/04 07:35:16;;;;;;;1.55;0.37;;;;;;;;;;1781302;79;26754;-57
2022/10/04 07:37:48;;;;;;;0.93;0.23;;;;;;;;;;1788493;79;26789;-57
2022/10/04 07:40:20;;;;;;;0.30;0.30;;;;;;;;;;1781342;79;26365;-53
2022/10/04 07:42:49;;;;;;;0.40;0.40;;;;;;;;;;1791157;79;26743;-54
2022/10/04 07:45:18;;;;;;;1.85;0.50;;;;;;;;;;1788791;79;27068;-55
2022/10/04 07:47:45;;;;;;;0.65;0.55;;;;;;;;;;1780082;79;27476;-55
2022/10/04 07:50:23;;;;;;;0.30;0.30;;;;;;;;;;1791460;79;26730;-55
2022/10/04 07:52:52;;;;;;;0.40;0.40;;;;;;;;;;1793541;79;26227;-57
2022/10/04 07:55:39;;;;;;;0.62;0.40;;;;;;;;;;1793008;79;26295;-55
2022/10/04 07:58:11;;;;;;;0.30;0.30;;;;;;;;;;1766171;79;26374;-54
2022/10/04 08:00:49;;;;;;;1.75;0.47;;;;;;;;;;1783167;79;26400;-54
2022/10/04 08:03:18;;;;;;;0.40;0.40;;;;;;;;;;1780932;79;27707;-55
2022/10/04 08:05:49;;;;;;;0.40;0.40;;;;;;;;;;1783918;79;27403;-56
2022/10/04 08:08:21;;;;;;;0.30;0.30;;;;;;;;;;1770703;79;26301;-57
2022/10/04 08:11:07;;;;;;;0.40;0.40;;;;;;;;;;1766828;79;26345;-50
2022/10/04 08:13:44;;;;;;;1.32;0.57;;;;;;;;;;1781186;79;26362;-54
2022/10/04 08:16:13;;;;;;;0.30;0.30;;;;;;;;;;1763265;79;26360;-54
2022/10/04 08:18:42;;;;;;;0.45;0.40;;;;;;;;;;1744730;79;26330;-54
2022/10/04 08:21:11;;;;;;;0.42;0.30;;;;;;;;;;1777022;79;26725;-51
2022/10/04 08:23:40;;;;;;;0.30;0.30;;;;;;;;;;1780037;79;26731;-53
2022/10/04 08:26:12;;;;;;;0.47;0.30;;;;;;;;;;1792484;79;26346;-54
2022/10/04 08:31:46;;;;;;;0.30;0.30;;;;;;;;;;1779129;79;26296;-55
2022/10/04 08:34:32;;;;;;;0.40;0.30;;;;;;;;;;1768891;79;27380;-53
2022/10/04 08:37:02;;;;;;;0.30;0.30;;;;;;;;;;1773707;79;26307;-52
2022/10/04 08:39:47;;;;;;;0.30;0.30;;;;;;;;;;1752023;79;26274;-53
2022/10/04 08:42:33;;;;;;;0.40;0.40;;;;;;;;;;1781497;79;26358;-56
2022/10/04 08:45:02;;;;;;;0.40;0.40;;;;;;;;;;1769828;79;26310;-52
2022/10/04 08:47:40;;;;;;;0.35;0.35;;;;;;;;;;1780028;79;26601;-52
2022/10/04 08:50:12;;;;;;;3.85;0.35;;;;;;;;;;1729353;81;26428;-53
2022/10/04 08:52:43;;;;;;;0.20;0.20;;;;;;;;;;1778383;79;26259;-53
2022/10/04 08:55:15;;;;;;;0.37;0.30;;;;;;;;;;1779380;79;26338;-55
2022/10/04 08:58:02;;;;;;;0.40;0.40;;;;;;;;;;1759663;79;26735;-54
2022/10/04 09:00:36;;;;;;;0.30;0.30;;;;;;;;;;1791734;79;26797;-51
2022/10/04 09:03:08;;;;;;;1.22;0.30;;;;;;;;;;1800686;79;26312;-52
2022/10/04 09:05:54;;;;;;;0.30;0.30;;;;;;;;;;1790983;78;26349;-54
2022/10/04 09:08:32;;;;;;;0.95;0.40;;;;;;;;;;1780876;79;26851;-53
2022/10/04 09:11:04;;;;;;;0.20;0.20;;;;;;;;;;1786022;78;26286;-56
2022/10/04 09:13:49;;;;;;;0.50;0.50;;;;;;;;;;1802506;78;26643;-53
2022/10/04 09:16:36;;;;;;;0.30;0.30;;;;;;;;;;1782165;79;26905;-57
2022/10/04 09:19:20;;;;;;;0.60;0.30;;;;;;;;;;1777325;79;26326;-54
2022/10/04 09:22:00;;;;;;;0.30;0.30;;;;;;;;;;1790129;78;26747;-55
2022/10/04 09:24:45;;;;;;;0.13;0.13;;;;;;;;;;1800901;79;26195;-53
2022/10/04 09:27:26;;;;;;;0.30;0.30;;;;;;;;;;1800023;78;26234;-55
2022/10/04 09:30:11;;;;;;;0.30;0.30;;;;;;;;;;1784163;79;26678;-53
2022/10/04 09:32:45;;;;;;;0.78;0.40;;;;;;;;;;1776047;79;26239;-51
2022/10/04 09:35:16;;;;;;;0.30;0.30;;;;;;;;;;1791481;78;26210;-56
2022/10/04 09:38:02;;;;;;;0.30;0.30;;;;;;;;;;1790701;79;26703;-55
2022/10/04 09:40:34;;;;;;;0.20;0.20;;;;;;;;;;1795049;79;26302;-53
2022/10/04 09:43:20;;;;;;;0.30;0.30;;;;;;;;;;1789539;78;26242;-52
2022/10/04 09:45:49;;;;;;;0.40;0.40;;;;;;;;;;1773808;79;26344;-53
2022/10/04 09:48:35;;;;;;;0.30;0.30;;;;;;;;;;1794347;78;26302;-53
2022/10/04 09:51:23;;;;;;;0.13;0.13;;;;;;;;;;1772241;79;27395;-55
2022/10/04 09:53:52;;;;;;;0.20;0.20;;;;;;;;;;1773388;79;26361;-56
2022/10/04 09:56:21;;;;;;;0.20;0.20;;;;;;;;;;1780670;79;26591;-53
2022/10/04 09:58:50;;;;;;;0.30;0.30;;;;;;;;;;1778947;79;26183;-50
2022/10/04 10:01:32;;;;;;;1.27;0.30;;;;;;;;;;1799319;79;26286;-56
2022/10/04 10:04:17;;;;;;;0.47;0.30;;;;;;;;;;1791938;79;26330;-54
2022/10/04 10:06:47;;;;;;;0.13;0.13;;;;;;;;;;1793657;78;26813;-53
2022/10/04 10:09:17;;;;;;;0.20;0.20;;;;;;;;;;1790309;79;26272;-51
2022/10/04 10:14:54;;;;;;;0.20;0.20;;;;;;;;;;1800304;79;26242;-52
2022/10/04 10:17:36;;;;;;;0.20;0.20;;;;;;;;;;1788379;78;26296;-54
2022/10/04 10:19:59;;;;;;;0.20;0.20;;;;;;;;;;1798608;79;26294;-54
2022/10/04 10:22:40;;;;;;;0.30;0.30;;;;;;;;;;1789648;79;26712;-53
2022/10/04 10:25:09;;;;;;;0.30;0.30;;;;;;;;;;1782788;78;26624;-55
2022/10/04 10:27:41;;;;;;;0.30;0.30;;;;;;;;;;1791429;78;26290;-54
2022/10/04 10:30:23;;;;;;;0.23;0.20;;;;;;;;;;1792550;79;26296;-55
2022/10/04 10:33:08;;;;;;;0.20;0.20;;;;;;;;;;1784681;79;26250;-55
2022/10/04 10:35:43;;;;;;;0.30;0.30;;;;;;;;;;1779444;79;26801;-54
2022/10/04 10:38:14;;;;;;;0.30;0.30;;;;;;;;;;1785959;79;26258;-57
2022/10/04 10:40:49;;;;;;;0.50;0.40;;;;;;;;;;1786119;79;26341;-55
2022/10/04 10:43:19;;;;;;;0.15;0.15;;;;;;;;;;1783357;78;26243;-54
2022/10/04 10:45:50;;;;;;;0.30;0.30;;;;;;;;;;1773073;78;26264;-55
2022/10/04 10:48:25;;;;;;;0.20;0.20;;;;;;;;;;1801206;78;26276;-53
2022/10/04 10:51:02;;;;;;;0.28;0.28;;;;;;;;;;1800019;78;26260;-55
2022/10/04 10:53:47;;;;;;;0.10;0.10;;;;;;;;;;1783539;79;26723;-56
2022/10/04 10:56:32;;;;;;;0.10;0.10;;;;;;;;;;1776425;79;26305;-52
2022/10/04 10:59:01;;;;;;;0.25;0.25;;;;;;;;;;1791571;79;26247;-54
2022/10/04 11:01:47;;;;;;;0.20;0.20;;;;;;;;;;1800438;78;26609;-54
2022/10/04 11:04:24;;;;;;;0.20;0.20;;;;;;;;;;1683402;82;26370;-53
2022/10/04 11:07:06;;;;;;;0.30;0.30;;;;;;;;;;1765344;78;26251;-54
2022/10/04 11:09:40;;;;;;;0.20;0.20;;;;;;;;;;1791592;78;26752;-52
2022/10/04 11:12:18;;;;;;;0.40;0.40;;;;;;;;;;1786611;79;26237;-55
2022/10/04 11:15:05;;;;;;;0.25;0.25;;;;;;;;;;1789508;79;26292;-57
2022/10/04 11:17:52;;;;;;;0.10;0.10;;;;;;;;;;1802814;79;26315;-56
2022/10/04 11:20:26;;;;;;;0.23;0.23;;;;;;;;;;1769895;79;26302;-52
2022/10/04 11:23:12;;;;;;;0.23;0.23;;;;;;;;;;1793741;79;26627;-55
2022/10/04 11:25:45;;;;;;;0.20;0.20;;;;;;;;;;1792771;79;26291;-54
2022/10/04 11:28:25;;;;;;;0.20;0.20;;;;;;;;;;1792456;79;26376;-54
2022/10/04 11:31:00;;;;;;;0.20;0.20;;;;;;;;;;1781861;78;26175;-54
2022/10/04 11:33:41;;;;;;;0.20;0.20;;;;;;;;;;1790230;78;26279;-53
2022/10/04 11:36:13;;;;;;;0.30;0.30;;;;;;;;;;1784644;79;26276;-52
2022/10/04 11:38:57;;;;;;;0.30;0.30;;;;;;;;;;1780872;78;26716;-53
2022/10/04 11:41:26;;;;;;;0.13;0.13;;;;;;;;;;1796774;79;26279;-52
2022/10/04 11:43:58;;;;;;;0.72;0.30;;;;;;;;;;1774328;79;25923;-55
2022/10/04 11:46:34;;;;;;;0.20;0.20;;;;;;;;;;1770499;79;26236;-55
2022/10/04 11:49:09;;;;;;;0.37;0.37;;;;;;;;;;1777191;78;26879;-55
2022/10/04 11:51:46;;;;;;;0.20;0.20;;;;;;;;;;1777166;79;26791;-54
2022/10/04 11:54:31;;;;;;;0.20;0.20;;;;;;;;;;1772437;78;26303;-54
2022/10/04 11:57:05;;;;;;;0.30;0.30;;;;;;;;;;1771379;79;26235;-55
2022/10/04 11:59:46;;;;;;;0.20;0.20;;;;;;;;;;1803397;79;26254;-57
2022/10/04 12:02:31;;;;;;;0.20;0.20;;;;;;;;;;1769852;79;26369;-54
2022/10/04 12:05:00;;;;;;;0.20;0.20;;;;;;;;;;1768147;81;26287;-53
2022/10/04 12:07:35;;;;;;;0.28;0.28;;;;;;;;;;1771300;79;26299;-53
2022/10/04 12:10:12;;;;;;;0.10;0.10;;;;;;;;;;1776523;79;26272;-55
2022/10/04 12:12:53;;;;;;;0.30;0.30;;;;;;;;;;1761988;79;26259;-54
2022/10/04 12:15:39;;;;;;;0.23;0.23;;;;;;;;;;1775109;81;26362;-56
2022/10/04 12:18:08;;;;;;;0.28;0.28;;;;;;;;;;1776837;79;26347;-53
2022/10/04 12:20:43;;;;;;;0.30;0.20;;;;;;;;;;1773628;79;26268;-57
2022/10/04 12:23:12;;;;;;;0.20;0.20;;;;;;;;;;1771892;81;26830;-56
2022/10/04 12:25:43;;;;;;;0.17;0.17;;;;;;;;;;1767712;79;26731;-55
2022/10/04 12:28:24;;;;;;;0.10;0.10;;;;;;;;;;1775426;79;26954;-52
2022/10/04 12:30:59;;;;;;;0.10;0.10;;;;;;;;;;1760745;80;26238;-55
2022/10/04 12:33:28;;;;;;;0.40;0.40;;;;;;;;;;1746942;81;26239;-54
2022/10/04 12:36:00;;;;;;;0.20;0.20;;;;;;;;;;1750840;79;26283;-54
2022/10/04 12:38:45;;;;;;;0.20;0.20;;;;;;;;;;1747680;79;26385;-55
2022/10/04 12:41:31;;;;;;;0.25;0.25;;;;;;;;;;1759207;81;26379;-54
2022/10/04 12:44:16;;;;;;;0.20;0.20;;;;;;;;;;1755416;79;26277;-55
2022/10/04 12:47:02;;;;;;;0.20;0.20;;;;;;;;;;1777587;79;26860;-55
2022/10/04 12:49:43;;;;;;;0.20;0.20;;;;;;;;;;1754582;79;26246;-56
2022/10/04 12:52:18;;;;;;;0.20;0.20;;;;;;;;;;1752144;81;26291;-52
2022/10/04 12:54:52;;;;;;;0.20;0.20;;;;;;;;;;1756693;79;26696;-52
2022/10/04 12:57:24;;;;;;;0.28;0.28;;;;;;;;;;1758108;81;26762;-55
2022/10/04 12:59:53;;;;;;;0.20;0.20;;;;;;;;;;1766729;79;26389;-55
2022/10/04 13:02:28;;;;;;;0.20;0.20;;;;;;;;;;1790864;79;26316;-55
2022/10/04 13:04:56;;;;;;;0.20;0.20;;;;;;;;;;1800534;78;26249;-56
2022/10/04 13:07:35;;;;;;;0.10;0.10;;;;;;;;;;1797917;78;26226;-55
2022/10/04 13:10:04;;;;;;;0.25;0.25;;;;;;;;;;1798245;79;27297;-53
2022/10/04 13:12:50;;;;;;;0.20;0.20;;;;;;;;;;1774126;78;26244;-57
2022/10/04 13:15:25;;;;;;;0.20;0.20;;;;;;;;;;1778573;79;26320;-54
2022/10/04 13:18:03;;;;;;;0.20;0.20;;;;;;;;;;1800957;78;27290;-55
2022/10/04 13:20:41;;;;;;;0.20;0.20;;;;;;;;;;1771652;79;26266;-54
2022/10/04 13:23:10;;;;;;;0.20;0.20;;;;;;;;;;1776792;78;26602;-53
2022/10/04 13:25:55;;;;;;;0.20;0.20;;;;;;;;;;1771517;79;26588;-55
2022/10/04 13:28:28;;;;;;;0.20;0.20;;;;;;;;;;1791146;79;26316;-53
2022/10/04 13:31:03;;;;;;;0.10;0.10;;;;;;;;;;1799352;79;26257;-55
2022/10/04 13:33:47;;;;;;;0.20;0.20;;;;;;;;;;1779122;79;26196;-54
2022/10/04 13:36:15;;;;;;;0.20;0.20;;;;;;;;;;1775432;79;26271;-55
2022/10/04 13:38:56;;;;;;;0.20;0.20;;;;;;;;;;1773243;78;26262;-54
2022/10/04 13:41:25;;;;;;;0.30;0.30;;;;;;;;;;1785347;79;26273;-53
2022/10/04 13:44:09;;;;;;;0.20;0.20;;;;;;;;;;1774735;78;26256;-58
2022/10/04 13:46:47;;;;;;;0.15;0.15;;;;;;;;;;1775558;79;26252;-55
2022/10/04 13:49:28;;;;;;;0.10;0.10;;;;;;;;;;1768983;78;26263;-55
2022/10/04 13:57:32;;;;;;;0.10;0.10;;;;;;;;;;1777245;79;26391;-53
2022/10/04 14:00:07;;;;;;;0.20;0.20;;;;;;;;;;1787387;78;26269;-56
2022/10/04 14:02:42;;;;;;;0.20;0.20;;;;;;;;;;1789282;79;26373;-54
2022/10/04 14:05:27;;;;;;;0.10;0.10;;;;;;;;;;1780071;79;26271;-55
2022/10/04 14:07:57;;;;;;;0.20;0.20;;;;;;;;;;1785732;79;26637;-56
2022/10/04 14:10:42;;;;;;;0.25;0.25;;;;;;;;;;1763742;79;26287;-52
2022/10/04 14:13:27;;;;;;;0.20;0.20;;;;;;;;;;1756918;79;26376;-54
2022/10/04 14:15:59;;;;;;;0.10;0.10;;;;;;;;;;1752109;79;26407;-54
2022/10/04 14:18:46;;;;;;;0.15;0.15;;;;;;;;;;1758066;79;26455;-51
2022/10/04 14:21:29;;;;;;;0.20;0.20;;;;;;;;;;1766773;79;26342;-53
2022/10/04 14:23:57;;;;;;;0.20;0.20;;;;;;;;;;1750829;79;26340;-56
2022/10/04 14:26:27;;;;;;;0.10;0.10;;;;;;;;;;1750961;79;26298;-55
2022/10/04 14:28:58;;;;;;;0.10;0.10;;;;;;;;;;1752469;79;26263;-52
2022/10/04 14:31:30;;;;;;;0.20;0.20;;;;;;;;;;1781085;79;26342;-56
2022/10/04 14:34:16;;;;;;;0.30;0.30;;;;;;;;;;1772223;79;26289;-55
2022/10/04 14:36:44;;;;;;;0.20;0.20;;;;;;;;;;1772323;79;26748;-54
2022/10/04 14:39:19;;;;;;;0.10;0.10;;;;;;;;;;1763015;79;27294;-56
2022/10/04 14:41:54;;;;;;;0.30;0.30;;;;;;;;;;1778323;79;26352;-55
2022/10/04 14:44:35;;;;;;;0.20;0.20;;;;;;;;;;1760424;79;26358;-56
2022/10/04 14:47:06;;;;;;;0.10;0.10;;;;;;;;;;1773102;79;26949;-56
2022/10/04 14:49:56;;;;;;;0.30;0.30;;;;;;;;;;1777700;79;26271;-51
2022/10/04 14:52:36;;;;;;;0.37;0.37;;;;;;;;;;1793962;79;26442;-54
2022/10/04 14:55:22;;;;;;;0.20;0.20;;;;;;;;;;1757840;79;26349;-55
2022/10/04 14:57:57;;;;;;;0.30;0.30;;;;;;;;;;1773302;79;26326;-55
2022/10/04 15:00:35;;;;;;;0.40;0.40;;;;;;;;;;1776044;79;26291;-54
2022/10/04 15:03:07;;;;;;;0.20;0.20;;;;;;;;;;1775956;79;26315;-55
2022/10/04 15:05:43;;;;;;;0.30;0.30;;;;;;;;;;1783847;79;26746;-54
2022/10/04 15:08:20;;;;;;;0.20;0.20;;;;;;;;;;1767967;79;26771;-54
2022/10/04 15:10:49;;;;;;;0.20;0.20;;;;;;;;;;1785803;79;26313;-54
2022/10/04 15:13:21;;;;;;;0.30;0.30;;;;;;;;;;1785451;79;26747;-57
2022/10/04 15:15:53;;;;;;;0.40;0.40;;;;;;;;;;1787668;79;26806;-54
2022/10/04 15:18:40;;;;;;;0.30;0.30;;;;;;;;;;1816164;78;26353;-54
2022/10/04 15:21:21;;;;;;;0.53;0.40;;;;;;;;;;1801304;79;26747;-53
2022/10/04 15:23:55;;;;;;;0.30;0.30;;;;;;;;;;1790880;79;26340;-56
2022/10/04 15:26:24;;;;;;;0.30;0.30;;;;;;;;;;1792608;79;26747;-56
2022/10/04 15:29:08;;;;;;;0.40;0.30;;;;;;;;;;1783871;79;26786;-58
2022/10/04 15:31:37;;;;;;;0.25;0.25;;;;;;;;;;1795359;79;26344;-55
2022/10/04 15:34:23;;;;;;;0.50;0.20;;;;;;;;;;1780936;79;26309;-52
2022/10/04 15:37:00;;;;;;;0.30;0.30;;;;;;;;;;1782892;79;26239;-55